Change the Weather History Date:

Sunday, December 2, 2012

  Actual Average Record
Temperature  
Mean Temperature 88 °F -  
Max Temperature 100 °F 98 °F 107 °F (2007)
Min Temperature 75 °F 75 °F 68 °F (2013)
Cooling Degree Days 22    
Growing Degree Days 38 (Base 50)    
Moisture  
Dew Point 74 °F    
Average Humidity 80    
Maximum Humidity 100    
Minimum Humidity 21    
Precipitation  
Precipitation 0.00 in 0.03 in - ()
Sea Level Pressure  
Sea Level Pressure 29.76 in    
Wind  
Wind Speed 10 mph ()    
Max Wind Speed 23 mph    
Max Gust Speed -    
Visibility 6.2 miles    
Events      
Averages and records for this station are not official NWS values.
T = Trace of Precipitation, MM = Missing Value Source: Averaged Metar Reports

Daily Weather History Graph

Daily Weather History Graph

Search for Another Location

Airport or City:

Trip Planner

Search our weather history database for the weather conditions in past years. The results will help you decide how hot, cold, wet, or windy it might be!

Date:

Astronomy

Dec. 02, 2012 Rise Set
Actual Time 5:16 AM AWST 6:33 PM AWST
Civil Twilight 4:52 AM AWST 6:57 PM AWST
Nautical Twilight 4:23 AM AWST 7:26 PM AWST
Astronomical Twilight 3:53 AM AWST 7:56 PM AWST
Moon 9:23 PM AWST (12/2) 8:02 AM AWST (12/2)
Length of Visible Light 14h 05m
Length of Day
13h 17m
Waning Gibbous, 89% of the Moon is Illuminated
Dec 2
Waning Gibbous
Dec 6
Last Quarter
Dec 13
New
Dec 20
First Quarter
Dec 28
Full

Hourly Weather History & Observations

Time (AWST) Temp. Heat Index Dew Point Humidity Pressure Visibility Wind Dir Wind Speed Gust Speed Precip Events Conditions
12:00 AM 79 °F - 73 °F 78% 29.79 in - West 10.4 mph - -  
12:00 AM 78.8 °F - 73.4 °F 83% 29.77 in 6.2 mi West 10.4 mph - N/A   Unknown
12:30 AM 78.8 °F - 73.4 °F 83% 29.77 in 6.2 mi West 8.1 mph - N/A   Unknown
1:00 AM 78.8 °F - 73.4 °F 83% 29.77 in 6.2 mi WSW 9.2 mph - N/A   Unknown
1:30 AM 78.8 °F - 71.6 °F 78% 29.77 in 6.2 mi WSW 6.9 mph - N/A   Unknown
2:00 AM 78 °F - 71 °F 74% 29.77 in - WSW 8.1 mph - -  
2:00 AM 77.0 °F - 71.6 °F 83% 29.77 in 6.2 mi WSW 8.1 mph - N/A   Unknown
2:30 AM 77.0 °F - 71.6 °F 83% 29.74 in 6.2 mi WSW 8.1 mph - N/A   Unknown
3:00 AM 77 °F - 71 °F 78% 29.75 in - West 6.9 mph - -  
3:00 AM 77.0 °F - 71.6 °F 83% 29.74 in 6.2 mi West 6.9 mph - N/A   Scattered Clouds
3:30 AM 77.0 °F - 71.6 °F 83% 29.74 in 6.2 mi West 10.4 mph - N/A   Unknown
4:00 AM 75.2 °F - 71.6 °F 89% 29.74 in 6.2 mi WSW 4.6 mph - N/A   Unknown
4:30 AM 77.0 °F - 71.6 °F 83% 29.74 in 6.2 mi SE 1.2 mph - N/A   Unknown
5:00 AM 75 °F - 71 °F 84% 29.77 in - East 5.8 mph - -  
5:00 AM 75.2 °F - 71.6 °F 89% 29.77 in 6.2 mi East 5.8 mph - N/A   Unknown
5:30 AM 75.2 °F - 71.6 °F 89% 29.77 in 6.2 mi East 3.5 mph - N/A   Unknown
6:00 AM 75 °F - 71 °F 83% 29.78 in - East 3.5 mph - -  
6:00 AM 75.2 °F - 71.6 °F 89% 29.77 in 6.2 mi East 3.5 mph - N/A   Unknown
6:30 AM 77.0 °F - 71.6 °F 83% 29.80 in 6.2 mi ESE 5.8 mph - N/A   Unknown
7:00 AM 80.6 °F 85.4 °F 73.4 °F 79% 29.80 in 6.2 mi East 4.6 mph - N/A   Unknown
7:30 AM 84.2 °F 89.6 °F 71.6 °F 66% 29.80 in 6.2 mi NE 1.2 mph - N/A   Unknown
8:00 AM 87 °F - 69 °F 45% 29.82 in - South 2.3 mph - -  
8:00 AM 87.8 °F 91.4 °F 68.0 °F 52% 29.80 in 6.2 mi South 2.3 mph - N/A   Unknown
8:30 AM 91.4 °F 91.4 °F 60.8 °F 36% 29.80 in 6.2 mi SSW 3.5 mph - N/A   Unknown
9:00 AM 94 °F - 58 °F 21% 29.82 in - SSW 2.3 mph - -  
9:00 AM 93.2 °F 92.6 °F 59.0 °F 32% 29.80 in 6.2 mi SSW 2.3 mph - N/A   Unknown
9:30 AM 96.8 °F 94.4 °F 53.6 °F 23% 29.80 in 6.2 mi SW 5.8 mph - N/A   Unknown
10:00 AM 98.6 °F 101.0 °F 64.4 °F 32% 29.80 in 6.2 mi NNW 12.7 mph - N/A   Unknown
10:30 AM 95.0 °F 103.2 °F 71.6 °F 47% 29.80 in 6.2 mi NNW 15.0 mph - N/A   Unknown
11:00 AM 93 °F - 72 °F 42% 29.79 in - NNW 17.3 mph - -  
11:00 AM 93.2 °F 100.5 °F 71.6 °F 49% 29.77 in 6.2 mi NNW 17.3 mph - N/A   Unknown
11:30 AM 96.8 °F 103.1 °F 69.8 °F 41% 29.77 in 6.2 mi NW 13.8 mph - N/A   Unknown
12:00 PM 94 °F - 73 °F 41% 29.76 in - NNW 16.1 mph - -  
12:00 PM 95.0 °F 104.5 °F 73.4 °F 49% 29.74 in 6.2 mi NNW 16.1 mph - N/A   Unknown
12:30 PM 95.0 °F 103.2 °F 71.6 °F 47% 29.74 in 6.2 mi North 19.6 mph - N/A   Unknown
1:00 PM 95.0 °F 104.5 °F 73.4 °F 49% 29.74 in 6.2 mi NW 19.6 mph - N/A   Unknown
1:30 PM 95.0 °F 161.1 °F 95.0 °F 100% 29.71 in 6.2 mi NNW 19.6 mph - N/A   Unknown
2:00 PM 93 °F - 93 °F 100% 29.73 in - NNW 21.9 mph - -  
2:00 PM 93.2 °F 149.9 °F 93.2 °F 100% 29.71 in 6.2 mi NNW 21.9 mph - N/A   Unknown
2:30 PM 93.2 °F 149.9 °F 93.2 °F 100% 29.71 in 6.2 mi NW 21.9 mph - N/A   Unknown
3:00 PM 92 °F - 92 °F 99% 29.71 in - NW 20.7 mph - -  
3:00 PM 91.4 °F 139.4 °F 91.4 °F 100% 29.71 in 6.2 mi NW 20.7 mph - N/A   Unknown
3:30 PM 91.4 °F 139.4 °F 91.4 °F 100% 29.68 in 6.2 mi NW 21.9 mph - N/A   Unknown
4:00 PM 91.4 °F 139.4 °F 91.4 °F 100% 29.68 in 6.2 mi NW 21.9 mph - N/A   Unknown
4:30 PM 91.4 °F 139.4 °F 91.4 °F 100% 29.68 in 6.2 mi WNW 23.0 mph - N/A   Unknown
5:00 PM 92 °F - 92 °F 98% 29.69 in - WNW 21.9 mph - -  
5:00 PM 91.4 °F 139.4 °F 91.4 °F 100% 29.68 in 6.2 mi WNW 21.9 mph - N/A   Unknown
5:30 PM 89.6 °F 129.5 °F 89.6 °F 100% 29.68 in 6.2 mi WNW 21.9 mph - N/A   Unknown
6:00 PM 87 °F - 87 °F 100% 29.69 in - WNW 20.7 mph - -  
6:00 PM 87.8 °F 120.2 °F 87.8 °F 100% 29.68 in 6.2 mi WNW 20.7 mph - N/A   Unknown
6:30 PM 86.0 °F 111.5 °F 86.0 °F 100% 29.71 in 6.2 mi WNW 18.4 mph - N/A   Unknown
7:00 PM 84.2 °F 103.5 °F 84.2 °F 100% 29.71 in 6.2 mi WNW 18.4 mph - N/A   Unknown
7:30 PM 84.2 °F 103.5 °F 84.2 °F 100% 29.71 in 6.2 mi WNW 17.3 mph - N/A   Unknown
8:00 PM 83 °F - 83 °F 100% 29.74 in - WNW 17.3 mph - -  
8:00 PM 84.2 °F 103.5 °F 84.2 °F 100% 29.74 in 6.2 mi WNW 17.3 mph - N/A   Unknown
8:30 PM 82.4 °F 96.1 °F 82.4 °F 100% 29.74 in 6.2 mi WNW 15.0 mph - N/A   Unknown
9:00 PM 83 °F - 83 °F 98% 29.77 in - WNW 10.4 mph - -  
9:00 PM 82.4 °F 96.1 °F 82.4 °F 100% 29.77 in 6.2 mi WNW 10.4 mph - N/A   Unknown
9:30 PM 82.4 °F 96.1 °F 82.4 °F 100% 29.77 in 6.2 mi WNW 10.4 mph - N/A   Unknown
10:00 PM 82.4 °F 96.1 °F 82.4 °F 100% 29.80 in 6.2 mi WNW 10.4 mph - N/A   Unknown
10:30 PM 82.4 °F 96.1 °F 82.4 °F 100% 29.80 in 6.2 mi WNW 8.1 mph - N/A   Unknown
11:00 PM 83 °F - 83 °F 98% 29.85 in - SSW 2.3 mph - -  
11:00 PM 82.4 °F 96.1 °F 82.4 °F 100% 29.83 in 6.2 mi SSW 2.3 mph - N/A   Unknown
11:30 PM 82.4 °F 96.1 °F 82.4 °F 100% 29.83 in 6.2 mi WSW 3.5 mph - N/A   Unknown